Time;durP1;ratioP1;P1;durP2;ratioP2;P2;SDS_P1;SDS_P2;PMS_P1;PMS_P2;Temp;Humidity;BMP_temperature;BMP_pressure;BME280_temperature;BME280_humidity;BME280_pressure;Samples;Min_cycle;Max_cycle;Signal;HPM_P1;HPM_P2
2022/07/04 00:00:35;;;;;;;3.53;3.23;;;21.30;27.80;;;21.49;57.43;100941.91;5062965;28;20785;-74
2022/07/04 00:03:05;;;;;;;4.27;3.87;;;21.30;29.80;;;21.38;57.60;100939.41;5055647;28;20472;-74
2022/07/04 00:05:34;;;;;;;3.70;3.40;;;21.20;33.00;;;21.27;58.43;100935.78;5052246;28;20413;-74
2022/07/04 00:08:05;;;;;;;5.10;4.00;;;21.10;37.30;;;21.19;58.68;100945.44;5052716;28;20799;-74
2022/07/04 00:10:35;;;;;;;4.03;3.63;;;21.00;41.10;;;21.14;58.76;100947.34;5068915;28;20448;-73
2022/07/04 00:13:05;;;;;;;3.30;3.00;;;20.90;44.30;;;21.09;58.94;100947.28;5072655;28;20456;-73
2022/07/04 00:15:35;;;;;;;3.63;3.33;;;20.90;47.10;;;21.10;58.92;100944.28;5072019;28;20421;-75
2022/07/04 00:18:05;;;;;;;3.13;2.93;;;20.80;48.70;;;20.98;59.42;100945.59;5044678;28;20982;-74
2022/07/04 00:20:35;;;;;;;3.47;3.17;;;20.70;51.10;;;20.93;59.40;100954.66;5062251;28;20440;-74
2022/07/04 00:23:05;;;;;;;3.67;3.37;;;20.70;54.20;;;20.89;59.68;100956.28;5052955;28;20469;-74
2022/07/04 00:25:36;;;;;;;3.70;3.40;;;20.60;57.50;;;20.86;59.77;100950.50;5063249;28;20531;-73
2022/07/04 00:28:05;;;;;;;4.77;3.77;;;20.60;60.80;;;20.76;60.40;100940.28;5065819;28;20474;-73
2022/07/04 00:30:35;;;;;;;3.63;3.33;;;20.50;68.00;;;20.73;60.54;100935.31;5065027;28;20424;-74
2022/07/04 00:33:04;;;;;;;3.53;3.23;;;20.50;72.60;;;20.61;60.96;100931.97;5057495;28;20523;-73
2022/07/04 00:35:33;;;;;;;5.00;4.60;;;20.40;77.90;;;20.59;61.64;100923.97;5069374;28;20796;-73
2022/07/04 00:38:02;;;;;;;4.20;3.90;;;20.40;84.10;;;20.46;61.82;100918.97;5063252;28;20414;-75
2022/07/04 00:40:32;;;;;;;4.27;3.57;;;20.30;88.40;;;20.46;61.99;100918.13;5051835;28;20549;-74
2022/07/04 00:43:04;;;;;;;4.20;3.80;;;20.30;90.30;;;20.39;62.26;100915.63;5057370;28;20436;-75
2022/07/04 00:45:33;;;;;;;3.97;3.60;;;20.20;92.10;;;20.27;63.02;100902.06;5053909;22;20506;-76
2022/07/04 00:48:02;;;;;;;3.73;3.43;;;20.10;93.90;;;20.28;63.04;100889.16;5049218;28;20477;-75
2022/07/04 00:50:32;;;;;;;3.60;3.30;;;20.10;95.00;;;20.16;63.35;100888.53;5041981;28;20445;-75
2022/07/04 00:53:02;;;;;;;3.90;3.60;;;20.00;96.00;;;20.17;63.35;100896.50;5049135;28;20753;-76
2022/07/04 00:55:32;;;;;;;3.87;3.57;;;20.00;96.60;;;20.06;63.83;100905.78;5042308;28;20421;-74
2022/07/04 00:58:02;;;;;;;4.20;3.90;;;19.90;97.70;;;20.04;64.20;100916.22;5049709;28;20465;-76
2022/07/04 01:00:32;;;;;;;4.07;3.67;;;19.80;98.30;;;19.95;64.37;100924.09;5031052;28;20422;-75
2022/07/04 01:03:01;;;;;;;4.63;4.17;;;19.80;99.00;;;19.90;64.49;100926.81;5044323;28;20463;-76
2022/07/04 01:05:30;;;;;;;4.30;4.00;;;19.70;99.90;;;19.84;64.94;100938.03;5047442;28;20534;-76
2022/07/04 01:08:00;;;;;;;3.30;3.00;;;19.70;99.90;;;19.73;65.46;100941.78;5043290;28;20546;-76
2022/07/04 01:10:29;;;;;;;5.10;4.00;;;19.60;99.90;;;19.73;65.64;100941.78;5046374;28;20467;-76
2022/07/04 01:12:58;;;;;;;3.83;3.53;;;19.60;99.90;;;19.69;65.70;100946.13;5044989;28;20461;-75
2022/07/04 01:15:28;;;;;;;4.03;3.70;;;19.50;99.90;;;19.69;65.77;100946.13;5039258;28;20486;-76
2022/07/04 01:17:57;;;;;;;9.13;3.30;;;19.50;99.90;;;19.67;66.06;100943.63;5048922;28;20521;-75
2022/07/04 01:20:35;;;;;;;4.20;3.90;;;19.40;99.90;;;19.63;66.10;100938.94;5047044;28;20447;-75
2022/07/04 01:23:04;;;;;;;3.67;3.37;;;19.40;99.90;;;19.50;66.76;100956.66;5048188;28;20458;-75
2022/07/04 01:25:34;;;;;;;4.20;3.70;;;19.40;99.90;;;19.48;66.76;100959.66;5043904;28;20916;-75
2022/07/04 01:28:03;;;;;;;4.13;3.83;;;19.30;99.90;;;19.43;67.20;100958.75;5047195;28;20865;-76
2022/07/04 01:30:32;;;;;;;6.00;3.33;;;19.30;99.90;;;19.34;67.69;100963.03;5042646;28;20447;-76
2022/07/04 01:33:01;;;;;;;4.13;3.73;;;19.20;99.90;;;19.37;67.55;100974.31;5044801;28;20531;-76
2022/07/04 01:35:32;;;;;;;4.13;3.83;;;19.20;99.90;;;19.38;67.89;100977.91;5049083;28;21037;-76
2022/07/04 01:38:01;;;;;;;4.40;4.07;;;19.20;99.90;;;19.17;68.63;100982.31;5044647;28;20451;-74
2022/07/04 01:40:30;;;;;;;3.97;3.67;;;19.10;99.90;;;19.20;68.41;100983.75;5045800;28;20691;-75
2022/07/04 01:42:59;;;;;;;3.90;3.50;;;19.00;99.90;;;19.17;68.94;100987.81;5045079;28;20872;-75
2022/07/04 01:45:28;;;;;;;4.30;3.93;;;19.00;99.90;;;19.17;68.91;100998.78;5048580;28;20421;-76
2022/07/04 01:47:57;;;;;;;5.60;4.40;;;19.00;99.90;;;19.29;68.82;100995.91;5043168;28;20413;-76
2022/07/04 01:50:26;;;;;;;4.97;4.33;;;19.10;99.90;;;19.22;69.12;101001.59;5037195;28;21078;-75
2022/07/04 01:52:56;;;;;;;5.53;4.43;;;19.00;99.90;;;18.85;71.49;101000.56;5040249;28;21048;-77
2022/07/04 01:55:26;;;;;;;4.97;4.57;;;18.80;99.90;;;18.62;72.87;101002.47;5039667;28;20463;-75
2022/07/04 01:57:55;;;;;;;5.17;4.77;;;18.60;99.90;;;18.48;73.83;101008.53;5046125;28;20450;-75
2022/07/04 02:03:11;;;;;;;5.53;5.03;;;18.30;99.90;;;18.39;75.38;101008.13;5045481;28;20472;-76
2022/07/04 02:05:40;;;;;;;5.97;5.47;;;18.20;99.90;;;18.19;76.69;101010.56;5045441;28;20496;-76
2022/07/04 02:08:11;;;;;;;6.80;5.20;;;18.10;99.90;;;18.16;77.48;101011.03;5048871;28;20417;-76
2022/07/04 02:10:40;;;;;;;5.53;4.60;;;18.00;99.90;;;18.11;77.85;101021.91;5026417;28;20474;-75
2022/07/04 02:13:08;;;;;;;7.60;5.33;;;17.90;99.90;;;18.04;78.87;101026.72;5045622;28;21044;-75
2022/07/04 02:15:40;;;;;;;6.10;5.60;;;17.90;99.90;;;17.98;79.53;101017.59;5044999;28;20505;-74
2022/07/04 02:18:13;;;;;;;7.13;6.43;;;17.80;99.90;;;18.09;79.58;101013.13;5042184;28;20435;-74
2022/07/04 02:20:42;;;;;;;9.90;7.20;;;17.90;99.90;;;18.04;80.32;101024.00;5045292;28;20497;-76
2022/07/04 02:23:12;;;;;;;6.80;6.30;;;17.90;99.90;;;18.15;79.65;101025.84;5028874;28;20813;-75
2022/07/04 02:25:41;;;;;;;7.60;6.90;;;17.90;99.90;;;18.10;80.67;101020.28;5047540;28;20905;-75
2022/07/04 02:28:09;;;;;;;8.80;8.10;;;17.90;99.90;;;17.94;81.63;101032.03;5045066;28;20870;-75
2022/07/04 02:30:38;;;;;;;8.53;7.73;;;17.80;99.90;;;17.97;81.62;101031.53;5047999;28;20441;-75
2022/07/04 02:33:07;;;;;;;7.70;7.00;;;17.80;99.90;;;17.89;81.97;101029.19;5043742;28;20829;-74
2022/07/04 02:35:36;;;;;;;7.87;7.27;;;17.70;99.90;;;17.91;82.08;101040.75;5047921;28;20443;-74
2022/07/04 02:38:04;;;;;;;9.73;8.73;;;17.70;99.90;;;17.78;82.62;101029.03;5052214;28;20447;-76
2022/07/04 02:40:35;;;;;;;8.83;7.87;;;17.70;99.90;;;17.97;81.76;101026.88;5046507;28;20458;-74
2022/07/04 02:43:04;;;;;;;8.47;7.00;;;17.70;99.90;;;17.85;82.46;101039.00;5050628;28;20490;-74
2022/07/04 02:45:33;;;;;;;10.60;9.50;;;17.70;99.90;;;17.86;82.66;101038.75;5048530;28;20541;-75
2022/07/04 02:48:02;;;;;;;9.73;8.70;;;17.70;99.90;;;17.86;82.54;101043.41;5051935;28;20477;-75
2022/07/04 02:50:31;;;;;;;9.40;8.50;;;17.70;99.90;;;17.78;83.31;101039.97;5043524;28;20464;-76
2022/07/04 02:53:00;;;;;;;9.07;8.17;;;17.60;99.90;;;17.89;82.38;101048.38;5047737;28;20458;-76
2022/07/04 02:55:29;;;;;;;9.00;8.10;;;17.70;99.90;;;18.01;81.79;101049.94;5046022;28;20783;-75
2022/07/04 02:57:59;;;;;;;8.90;7.97;;;17.70;99.90;;;17.90;82.51;101059.09;5047790;28;20439;-75
2022/07/04 03:00:28;;;;;;;9.17;8.27;;;17.70;99.90;;;17.91;82.45;101057.19;5050192;28;20522;-75
2022/07/04 03:02:57;;;;;;;9.13;8.33;;;17.70;99.90;;;17.84;82.87;101056.50;5051917;28;20437;-75
2022/07/04 03:05:28;;;;;;;14.03;9.53;;;17.60;99.90;;;17.91;82.55;101054.44;5050051;28;20449;-75
2022/07/04 03:07:57;;;;;;;9.60;8.60;;;17.70;99.90;;;17.93;82.11;101042.16;5044706;28;20449;-75
2022/07/04 03:10:26;;;;;;;7.87;7.20;;;17.70;99.90;;;17.92;82.27;101035.00;5051339;28;20502;-75
2022/07/04 03:12:55;;;;;;;9.73;8.80;;;17.70;99.90;;;17.88;82.57;101033.00;5052015;28;20435;-76
2022/07/04 03:15:25;;;;;;;9.93;7.70;;;17.70;99.90;;;17.98;81.99;101028.56;5050151;28;20496;-75
2022/07/04 03:17:54;;;;;;;9.20;8.50;;;17.70;99.90;;;18.01;81.99;101032.72;5047919;28;20425;-75
2022/07/04 03:20:23;;;;;;;9.63;8.83;;;17.80;99.90;;;17.83;82.96;101046.59;5047281;28;20414;-74
2022/07/04 03:22:54;;;;;;;9.50;8.60;;;17.70;99.90;;;17.68;83.91;101050.72;5049735;28;20956;-75
2022/07/04 03:25:23;;;;;;;10.57;9.47;;;17.60;99.90;;;17.72;83.86;101062.84;5045845;28;20439;-75
2022/07/04 03:27:54;;;;;;;8.60;7.70;;;17.50;99.90;;;17.75;83.53;101073.31;5049652;28;21022;-75
2022/07/04 03:30:24;;;;;;;9.70;8.83;;;17.50;99.90;;;18.04;81.71;101081.50;5053834;28;20502;-75
2022/07/04 03:32:53;;;;;;;9.53;8.73;;;17.80;99.90;;;17.74;83.44;101074.38;5056229;28;20538;-74
2022/07/04 03:35:22;;;;;;;9.70;8.70;;;17.60;99.90;;;17.89;82.41;101083.97;5050863;28;20423;-74
2022/07/04 03:37:52;;;;;;;9.67;8.77;;;17.70;99.90;;;17.74;83.19;101081.75;5048335;28;20447;-76
2022/07/04 03:40:21;;;;;;;10.93;9.80;;;17.60;99.90;;;17.54;84.43;101081.34;5050105;28;20513;-75
2022/07/04 03:42:51;;;;;;;11.40;10.20;;;17.40;99.90;;;17.74;83.55;101085.34;5050651;28;20506;-76
2022/07/04 03:45:19;;;;;;;12.53;9.93;;;17.50;99.90;;;17.97;82.42;101091.75;5049579;28;20524;-76
2022/07/04 03:47:49;;;;;;;11.27;10.20;;;17.60;99.90;;;17.90;82.81;101091.09;5041980;28;20444;-75
2022/07/04 03:50:19;;;;;;;10.80;9.80;;;17.60;99.90;;;17.93;82.86;101087.84;5050709;28;20471;-75
2022/07/04 03:52:47;;;;;;;11.63;10.53;;;17.60;99.90;;;18.18;81.79;101091.88;5049988;28;20460;-75
2022/07/04 03:55:16;;;;;;;13.27;11.07;;;17.70;99.90;;;18.12;82.38;101100.25;5048772;28;20541;-75
2022/07/04 03:57:45;;;;;;;14.40;11.80;;;17.80;99.90;;;18.79;78.81;101098.38;5046091;28;20950;-75
2022/07/04 04:00:15;;;;;;;12.70;10.53;;;18.10;99.90;;;18.97;77.49;101108.25;5046930;28;20464;-74
2022/07/04 04:02:44;;;;;;;9.53;8.73;;;18.30;99.90;;;19.19;76.70;101117.34;5042509;28;20459;-75
2022/07/04 04:05:28;;;;;;;10.97;10.00;;;18.50;99.90;;;19.25;75.56;101113.56;5045602;28;20434;-74
2022/07/04 04:07:59;;;;;;;10.30;9.30;;;18.80;99.90;;;19.74;74.00;101122.72;5048050;28;20439;-75
2022/07/04 04:10:31;;;;;;;10.10;9.10;;;18.80;99.90;;;19.64;73.80;101130.00;5047806;28;20861;-76
2022/07/04 04:13:00;;;;;;;12.10;10.90;;;18.90;99.90;;;19.65;73.87;101135.25;5052360;28;20444;-75
2022/07/04 04:15:29;;;;;;;9.90;9.07;;;19.00;99.90;;;19.72;74.60;101137.78;5052301;28;21135;-75
2022/07/04 04:17:58;;;;;;;9.77;8.77;;;19.00;99.90;;;20.54;70.26;101143.06;5051913;28;20466;-75
2022/07/04 04:20:28;;;;;;;9.40;8.60;;;19.50;99.90;;;21.70;65.61;101138.28;5054353;28;20920;-75
2022/07/04 04:22:57;;;;;;;8.83;8.03;;;20.20;99.90;;;21.83;65.35;101143.31;5052814;28;20495;-75
2022/07/04 04:25:25;;;;;;;9.93;8.90;;;20.60;99.90;;;21.69;65.35;101150.41;5052935;28;20482;-75
2022/07/04 04:27:54;;;;;;;8.77;7.37;;;20.70;99.90;;;22.41;63.04;101146.75;5044300;28;20513;-75
2022/07/04 04:30:23;;;;;;;8.00;7.30;;;20.90;99.90;;;23.26;59.86;101136.75;5050811;28;20957;-75
2022/07/04 04:32:52;;;;;;;8.90;7.83;;;21.30;99.90;;;22.05;63.61;101143.94;5049177;28;20467;-76
2022/07/04 04:35:21;;;;;;;10.63;8.67;;;21.10;99.90;;;21.78;64.70;101140.53;5043201;28;20471;-74
2022/07/04 04:37:51;;;;;;;8.67;7.87;;;21.00;99.90;;;21.39;65.64;101142.03;5045746;28;20562;-74
2022/07/04 04:40:20;;;;;;;9.67;8.67;;;20.90;99.90;;;22.06;63.79;101142.84;5048437;28;20444;-74
2022/07/04 04:42:49;;;;;;;9.27;8.47;;;20.90;99.90;;;22.74;61.26;101137.97;5048613;28;20449;-75
2022/07/04 04:45:18;;;;;;;9.10;8.27;;;21.20;99.90;;;22.04;62.92;101155.22;5046119;28;20744;-75
2022/07/04 04:47:47;;;;;;;7.73;7.03;;;21.20;99.90;;;21.36;65.11;101150.78;5048040;28;20986;-77
2022/07/04 04:50:15;;;;;;;9.30;8.40;;;21.10;99.90;;;21.09;66.49;101148.16;5047048;28;20540;-74
2022/07/04 04:52:44;;;;;;;9.03;8.10;;;20.70;99.90;;;22.03;63.93;101143.38;5043751;28;20548;-74
2022/07/04 04:55:14;;;;;;;8.80;8.07;;;20.80;99.90;;;22.15;62.45;101145.06;5049038;28;20451;-75
2022/07/04 04:57:43;;;;;;;9.70;8.27;;;21.20;99.90;;;21.05;67.05;101164.38;5042984;28;20830;-74
2022/07/04 05:00:13;;;;;;;10.60;7.60;;;20.60;99.90;;;21.64;64.83;101155.88;5045583;28;20451;-74
2022/07/04 05:02:42;;;;;;;7.80;7.20;;;20.70;99.90;;;22.07;63.41;101163.78;5042085;28;20491;-76
2022/07/04 05:05:11;;;;;;;9.20;8.10;;;21.00;99.90;;;23.10;59.89;101158.03;5043600;28;20446;-75
2022/07/04 05:07:40;;;;;;;8.13;7.37;;;21.40;99.90;;;22.87;60.20;101173.25;5037461;28;20409;-76
2022/07/04 05:10:11;;;;;;;11.17;10.07;;;21.80;99.90;;;22.69;60.05;101176.56;5046033;28;20437;-74
2022/07/04 05:12:41;;;;;;;8.03;7.23;;;21.90;98.60;;;22.86;60.13;101168.84;5048338;28;20425;-74
2022/07/04 05:15:11;;;;;;;7.53;5.97;;;21.70;99.90;;;23.43;57.88;101166.81;5045324;28;20448;-74
2022/07/04 05:17:40;;;;;;;7.37;6.73;;;22.10;97.30;;;22.45;60.67;101169.91;5026412;28;20444;-75
2022/07/04 05:20:11;;;;;;;7.47;6.70;;;21.60;99.90;;;21.89;62.14;101169.75;5045285;28;20482;-74
2022/07/04 05:22:40;;;;;;;7.20;6.50;;;21.40;99.90;;;20.75;66.03;101164.13;5026459;28;20481;-73
2022/07/04 05:25:10;;;;;;;7.70;7.10;;;20.80;99.90;;;20.44;67.32;101179.53;5044484;28;20916;-74
2022/07/04 05:27:40;;;;;;;7.17;6.47;;;20.40;99.90;;;20.36;67.85;101183.59;5045703;28;20505;-74
2022/07/04 05:30:12;;;;;;;8.40;7.70;;;20.20;99.90;;;20.33;68.32;101195.09;5047243;28;20836;-73
2022/07/04 05:32:40;;;;;;;7.60;7.00;;;19.90;99.90;;;20.02;68.89;101193.06;5043217;28;20543;-73
2022/07/04 05:35:10;;;;;;;10.23;6.67;;;19.80;99.90;;;19.91;69.18;101205.84;5042558;28;20413;-74
2022/07/04 05:37:39;;;;;;;7.40;6.77;;;19.60;99.90;;;20.33;68.01;101211.56;5048480;28;20865;-73
2022/07/04 05:40:09;;;;;;;6.10;5.47;;;19.60;99.90;;;21.01;65.35;101210.00;5048922;28;20442;-73
2022/07/04 05:42:40;;;;;;;7.67;5.90;;;19.90;99.90;;;20.87;65.71;101205.19;5046703;28;20525;-73
2022/07/04 05:45:09;;;;;;;5.83;5.37;;;20.10;99.90;;;20.30;66.79;101212.09;5045847;28;20534;-73
2022/07/04 05:47:38;;;;;;;5.90;5.50;;;20.00;99.90;;;19.93;68.32;101195.47;5048145;28;20421;-72
2022/07/04 05:50:09;;;;;;;6.70;6.10;;;19.70;99.90;;;19.58;68.84;101196.91;5046861;28;20905;-74
2022/07/04 05:52:38;;;;;;;6.97;5.50;;;19.50;99.90;;;19.28;70.06;101198.13;5041923;28;20735;-74
2022/07/04 05:55:08;;;;;;;6.60;6.10;;;19.20;99.90;;;19.18;70.59;101208.94;5039460;28;20517;-73
2022/07/04 05:57:37;;;;;;;5.83;5.33;;;19.10;99.90;;;19.37;69.96;101202.09;5045616;28;20517;-73
2022/07/04 06:00:15;;;;;;;5.43;4.93;;;19.10;99.90;;;19.64;69.38;101204.13;5042703;28;20939;-73
2022/07/04 06:02:44;;;;;;;6.00;5.50;;;19.30;99.90;;;20.06;67.09;101207.13;5038974;28;20993;-74
2022/07/04 06:05:12;;;;;;;4.80;4.40;;;19.60;99.90;;;20.08;66.09;101207.72;5044670;28;20846;-74
2022/07/04 06:07:41;;;;;;;4.83;4.33;;;19.80;99.90;;;20.01;65.35;101216.13;5043179;28;21135;-73
2022/07/04 06:10:11;;;;;;;6.13;4.00;;;19.80;99.90;;;20.18;64.66;101207.81;5043858;28;20437;-73
2022/07/04 06:12:39;;;;;;;2.70;2.33;;;19.90;99.90;;;20.18;61.07;101218.81;5047402;28;20544;-73
2022/07/04 06:15:09;;;;;;;2.20;2.00;;;19.90;92.60;;;19.56;60.04;101204.59;5052374;28;20531;-73
2022/07/04 06:17:40;;;;;;;1.67;1.20;;;19.50;81.80;;;19.60;57.92;101214.81;5042461;28;20502;-73
2022/07/04 06:20:10;;;;;;;2.50;1.70;;;19.40;66.80;;;19.64;57.97;101223.34;5045527;28;20434;-73
2022/07/04 06:22:44;;;;;;;2.93;1.53;;;19.40;67.50;;;19.95;57.12;101215.25;5047906;28;20521;-74
2022/07/04 06:25:15;;;;;;;1.80;1.30;;;19.70;61.80;;;19.68;57.61;101221.75;5044476;28;20509;-73
2022/07/04 06:27:45;;;;;;;1.80;1.53;;;19.60;59.60;;;19.91;57.60;101233.31;5043389;28;20439;-73
2022/07/04 06:30:16;;;;;;;2.27;1.40;;;19.60;63.00;;;20.12;56.99;101241.81;5047736;28;20509;-72
2022/07/04 06:32:48;;;;;;;2.50;1.20;;;19.80;58.60;;;20.29;55.39;101226.91;5052781;28;20544;-74
2022/07/04 06:38:05;;;;;;;2.13;1.37;;;20.10;48.10;;;20.79;53.98;101236.78;5034848;28;20428;-74
2022/07/04 06:40:34;;;;;;;1.20;0.90;;;20.40;41.20;;;20.56;54.21;101261.84;5049714;28;20420;-74
2022/07/04 06:43:04;;;;;;;2.53;1.20;;;20.40;38.20;;;20.11;55.11;101257.47;5051900;28;20553;-74
2022/07/04 06:45:34;;;;;;;2.47;1.17;;;20.00;40.60;;;20.56;54.78;101253.59;5051116;28;20479;-72
2022/07/04 06:48:06;;;;;;;3.03;1.07;;;20.20;41.60;;;20.50;54.82;101254.63;5057157;28;20956;-73
2022/07/04 06:50:36;;;;;;;1.60;1.20;;;20.30;40.40;;;20.48;54.04;101251.34;5051517;28;20446;-72
2022/07/04 06:53:10;;;;;;;1.93;1.43;;;20.30;36.80;;;20.43;54.02;101248.53;5054280;28;20482;-73
2022/07/04 06:55:40;;;;;;;1.77;1.20;;;20.20;35.60;;;20.47;53.48;101255.16;5049890;28;20418;-75
2022/07/04 06:58:10;;;;;;;1.87;1.60;;;20.30;33.70;;;20.70;54.19;101257.59;5048921;28;20533;-73
2022/07/04 07:00:39;;;;;;;1.87;0.90;;;20.40;35.80;;;20.94;52.20;101256.16;5049809;28;20434;-74
2022/07/04 07:03:10;;;;;;;2.13;1.50;;;20.60;29.50;;;20.60;53.63;101255.56;5053291;28;20483;-73
2022/07/04 07:05:41;;;;;;;2.20;1.10;;;20.50;31.00;;;20.58;53.70;101255.00;5031265;28;20945;-74
2022/07/04 07:08:30;;;;;;;1.70;1.13;;;20.50;31.50;;;20.89;53.18;101253.38;5048775;28;20431;-73
2022/07/04 07:11:12;;;;;;;2.70;1.00;;;20.60;33.30;;;20.93;53.05;101261.91;5043199;28;20492;-72
2022/07/04 07:13:43;;;;;;;1.43;1.00;;;20.70;30.70;;;21.20;52.91;101255.28;5047163;28;20455;-73
2022/07/04 07:16:13;;;;;;;1.63;1.10;;;20.80;31.00;;;20.93;53.02;101260.00;5050688;28;20468;-74
2022/07/04 07:18:44;;;;;;;2.17;1.40;;;20.70;30.00;;;20.83;52.60;101257.16;5048604;28;20436;-72
2022/07/04 07:21:13;;;;;;;1.97;1.27;;;20.70;27.90;;;21.07;52.38;101266.72;5051493;28;20418;-74
2022/07/04 07:23:42;;;;;;;2.53;1.17;;;20.80;27.50;;;21.71;51.41;101266.66;5043819;28;20465;-73
2022/07/04 07:26:13;;;;;;;1.73;1.37;;;21.20;27.90;;;22.35;49.67;101258.13;5044628;28;21027;-73
2022/07/04 07:28:43;;;;;;;1.77;1.20;;;21.70;24.80;;;22.13;49.64;101257.50;5048700;28;20459;-74
2022/07/04 07:31:11;;;;;;;2.43;1.43;;;21.80;21.20;;;22.30;49.64;101258.94;5046700;28;20497;-73
2022/07/04 07:33:42;;;;;;;2.47;1.00;;;21.90;21.30;;;21.46;50.98;101263.75;5047388;28;20520;-73
2022/07/04 07:36:11;;;;;;;4.80;1.03;;;21.40;20.10;;;21.49;51.74;101268.72;5046207;28;20443;-73
2022/07/04 07:38:39;;;;;;;2.43;1.50;;;21.30;22.70;;;21.81;51.40;101266.72;5046647;28;20418;-72
2022/07/04 07:41:10;;;;;;;2.03;1.20;;;21.40;23.30;;;20.96;53.28;101277.94;5049138;28;20478;-72
2022/07/04 07:43:40;;;;;;;2.00;1.70;;;21.00;24.60;;;21.17;53.31;101277.84;5047192;28;20495;-73
2022/07/04 07:46:10;;;;;;;1.90;1.70;;;21.00;27.90;;;21.01;54.14;101278.78;5050162;28;20966;-73
2022/07/04 07:48:39;;;;;;;2.07;1.30;;;20.80;29.60;;;20.98;54.27;101282.06;5050680;28;20410;-72
2022/07/04 07:51:13;;;;;;;2.53;1.30;;;20.80;30.00;;;20.84;54.37;101283.59;5052906;28;20740;-74
2022/07/04 07:53:43;;;;;;;1.67;1.30;;;20.70;31.30;;;21.38;53.33;101280.75;5044640;28;20923;-73
2022/07/04 07:56:31;;;;;;;3.13;2.57;;;21.00;31.30;;;21.95;51.97;101280.84;5047753;28;20695;-74
2022/07/04 07:59:00;;;;;;;2.20;1.43;;;21.30;28.00;;;22.04;51.48;101288.34;5049322;28;21012;-73
2022/07/04 08:01:30;;;;;;;1.47;1.27;;;21.50;25.90;;;21.81;51.07;101283.25;5042540;28;20474;-74
2022/07/04 08:06:52;;;;;;;1.43;1.00;;;21.20;24.60;;;21.05;51.80;101284.59;5044690;28;20699;-72
2022/07/04 08:09:41;;;;;;;2.73;1.10;;;20.90;23.30;;;21.08;52.66;101279.41;5046106;28;20443;-74
2022/07/04 08:12:11;;;;;;;2.63;1.07;;;20.80;25.30;;;20.98;53.33;101279.31;5046766;28;20469;-75
2022/07/04 08:14:40;;;;;;;1.43;1.20;;;20.80;26.10;;;21.17;52.96;101286.09;5049821;28;20904;-74
2022/07/04 08:17:10;;;;;;;2.60;1.27;;;20.90;26.90;;;20.79;53.53;101291.78;5050271;28;20867;-74
2022/07/04 08:19:40;;;;;;;1.70;1.37;;;20.70;27.10;;;20.62;53.35;101302.06;5046702;28;20443;-75
2022/07/04 08:22:10;;;;;;;2.80;1.57;;;20.50;26.50;;;20.82;53.32;101296.75;5051977;28;20452;-74
2022/07/04 08:24:44;;;;;;;2.07;1.30;;;20.60;27.00;;;21.60;51.55;101289.72;5034150;28;20797;-75
2022/07/04 08:27:14;;;;;;;1.20;0.90;;;21.10;24.70;;;22.37;50.11;101295.34;5051381;28;20426;-73
2022/07/04 08:29:43;;;;;;;1.23;0.97;;;21.70;23.30;;;22.15;48.81;101293.91;5051380;28;20431;-75
2022/07/04 08:32:12;;;;;;;2.30;1.00;;;22.00;17.20;;;21.83;49.95;101289.31;5051421;28;20988;-76
2022/07/04 08:34:42;;;;;;;2.00;1.23;;;21.80;18.40;;;22.11;50.42;101288.09;5050597;28;20451;-73
2022/07/04 08:37:13;;;;;;;1.93;1.10;;;21.90;19.70;;;22.17;49.91;101287.03;5042405;28;20413;-75
2022/07/04 08:39:41;;;;;;;2.90;1.37;;;21.90;18.70;;;21.87;50.26;101286.84;5046460;28;20460;-73
2022/07/04 08:42:20;;;;;;;1.50;1.20;;;21.70;18.90;;;21.92;50.42;101281.38;5050514;28;20479;-74
2022/07/04 08:44:53;;;;;;;2.80;1.43;;;21.70;19.00;;;22.46;49.84;101277.19;5039623;28;20973;-74
2022/07/04 08:47:25;;;;;;;2.70;1.30;;;22.10;19.20;;;23.32;48.08;101276.47;5041745;28;20910;-74
2022/07/04 08:50:04;;;;;;;2.10;1.40;;;22.60;17.70;;;23.22;47.70;101282.84;5044072;28;20437;-72
2022/07/04 08:52:38;;;;;;;2.10;1.10;;;22.90;14.70;;;22.36;47.14;101292.88;5048388;28;20540;-71
2022/07/04 09:00:45;;;;;;;1.70;1.20;;;22.00;14.10;;;22.44;48.73;101293.19;5050723;28;20442;-73
2022/07/04 09:03:14;;;;;;;2.90;1.60;;;22.10;14.80;;;22.47;49.51;101297.31;5050444;28;20763;-72
2022/07/04 09:05:43;;;;;;;2.00;1.40;;;22.20;15.70;;;22.75;48.90;101302.38;5050293;28;20449;-73
2022/07/04 09:08:13;;;;;;;4.10;1.60;;;22.40;15.50;;;22.26;49.26;101290.94;5049878;28;20446;-72
2022/07/04 09:10:42;;;;;;;3.73;2.67;;;22.20;14.40;;;22.71;49.23;101298.50;5050915;28;20434;-73
2022/07/04 09:13:14;;;;;;;3.00;1.60;;;22.40;15.70;;;23.16;48.65;101289.44;5050291;28;20517;-73
2022/07/04 09:15:45;;;;;;;1.77;1.30;;;22.70;15.70;;;23.61;47.05;101296.06;5050191;28;20534;-73
2022/07/04 09:18:24;;;;;;;2.40;1.60;;;23.10;13.50;;;23.39;47.71;101293.56;5039057;28;20784;-72
2022/07/04 09:20:54;;;;;;;2.07;1.50;;;23.00;13.60;;;23.37;45.48;101298.56;5044393;28;20443;-72
2022/07/04 09:23:28;;;;;;;1.93;1.73;;;23.00;9.40;;;23.67;45.38;101295.75;5049937;28;20469;-73
2022/07/04 09:26:14;;;;;;;1.80;1.10;;;23.20;9.40;;;24.15;45.17;101299.78;5049951;28;20462;-73
2022/07/04 09:28:46;;;;;;;1.83;1.43;;;23.60;9.40;;;24.10;44.99;101304.50;5049701;28;20397;-72
2022/07/04 09:31:20;;;;;;;1.93;1.30;;;23.80;8.10;;;23.81;44.38;101294.09;5047672;28;20419;-73
2022/07/04 09:33:54;;;;;;;2.37;1.50;;;23.70;6.90;;;23.62;45.13;101293.03;5043566;28;20860;-73
2022/07/04 09:36:25;;;;;;;6.50;2.23;;;23.50;6.70;;;23.81;44.78;101302.38;5049324;28;20728;-72
2022/07/04 09:39:15;;;;;;;2.03;1.40;;;23.50;6.20;;;23.72;43.93;101300.47;5043614;28;20434;-72
2022/07/04 09:41:56;;;;;;;2.60;1.27;;;23.50;4.60;;;23.39;44.30;101290.81;5035032;28;20459;-74
2022/07/04 09:44:28;;;;;;;2.60;1.27;;;23.30;4.70;;;23.24;44.52;101296.34;5050089;28;20478;-71
2022/07/04 09:46:57;;;;;;;2.60;1.50;;;23.10;4.70;;;22.58;47.14;101298.19;5051088;28;20427;-73
2022/07/04 09:49:26;;;;;;;1.67;1.40;;;22.70;6.90;;;22.71;46.07;101301.25;5049034;28;20862;-73
2022/07/04 09:51:55;;;;;;;2.93;1.43;;;22.60;6.90;;;23.06;45.51;101299.66;5044338;28;20438;-73
2022/07/04 09:54:31;;;;;;;2.07;1.67;;;22.80;6.50;;;23.74;43.68;101307.38;5049148;28;20642;-72
2022/07/04 09:57:03;;;;;;;1.43;1.20;;;23.30;5.00;;;24.00;41.95;101301.78;5046136;28;21036;-71
2022/07/04 09:59:33;;;;;;;1.70;1.10;;;23.60;1.80;;;24.21;42.07;101297.84;5038527;28;20460;-74
2022/07/04 10:02:12;;;;;;;1.67;1.43;;;23.80;1.50;;;24.06;42.88;101301.47;5044463;28;21087;-73
2022/07/04 10:04:46;;;;;;;1.97;1.07;;;23.80;1.80;;;24.21;43.22;101303.38;5045842;28;20518;-71
2022/07/04 10:07:36;;;;;;;2.37;1.10;;;23.90;2.70;;;24.50;42.33;101309.03;5046346;28;20436;-71
2022/07/04 10:10:42;;;;;;;2.70;1.37;;;24.10;1.80;;;24.82;41.36;101306.66;5043817;28;20427;-72
2022/07/04 10:13:13;;;;;;;1.40;1.00;;;24.40;1.00;;;24.44;40.81;101304.66;4962386;28;20508;-71
2022/07/04 10:15:43;;;;;;;1.40;1.03;;;24.20;1.00;;;24.85;39.86;101310.75;4964355;28;20501;-72
2022/07/04 10:18:12;;;;;;;2.63;1.20;;;24.40;1.00;;;24.93;40.49;101307.44;5006303;28;20447;-72
2022/07/04 10:20:44;;;;;;;1.80;1.30;;;24.60;1.00;;;25.33;39.98;101309.84;5043317;28;20523;-71
2022/07/04 10:23:13;;;;;;;2.30;1.10;;;24.90;1.00;;;24.34;41.00;101304.72;5045176;28;20538;-72
2022/07/04 10:25:49;;;;;;;2.97;1.70;;;24.50;1.00;;;24.34;41.79;101307.47;5044082;28;20823;-73
2022/07/04 10:28:19;;;;;;;2.03;1.83;;;24.30;1.00;;;24.74;40.95;101303.66;5044841;28;20887;-71
2022/07/04 10:30:53;;;;;;;1.80;1.20;;;24.50;1.00;;;24.71;40.05;101312.53;5045544;28;20530;-73
2022/07/04 10:33:26;;;;;;;4.43;1.60;;;24.40;1.00;;;24.77;40.31;101314.97;5046336;28;20471;-74
2022/07/04 10:35:57;;;;;;;3.60;1.67;;;24.50;1.00;;;25.44;39.59;101299.50;5048329;28;20438;-72
2022/07/04 10:38:27;;;;;;;2.13;1.30;;;24.70;1.00;;;25.37;39.44;101310.09;5044453;28;20464;-71
2022/07/04 10:41:02;;;;;;;1.80;1.03;;;24.80;1.00;;;25.46;39.61;101303.63;5047290;28;20505;-72